Time;durP1;ratioP1;P1;durP2;ratioP2;P2;SDS_P1;SDS_P2;PMS_P1;PMS_P2;Temp;Humidity;BMP_temperature;BMP_pressure;BME280_temperature;BME280_humidity;BME280_pressure;Samples;Min_cycle;Max_cycle;Signal;HPM_P1;HPM_P2
2023/07/05 00:01:56;;;;;;;12.50;7.78;;;;;;;;;;4981425;28;20435;-62
2023/07/05 00:04:24;;;;;;;11.43;7.53;;;;;;;;;;4983127;28;20424;-62
2023/07/05 00:06:52;;;;;;;9.97;6.47;;;;;;;;;;4983536;28;20469;-62
2023/07/05 00:09:19;;;;;;;8.50;5.82;;;;;;;;;;4983121;28;20465;-62
2023/07/05 00:11:46;;;;;;;8.95;5.43;;;;;;;;;;4988898;28;20484;-62
2023/07/05 00:14:13;;;;;;;7.32;5.45;;;;;;;;;;4985114;28;20426;-63
2023/07/05 00:16:40;;;;;;;7.43;5.15;;;;;;;;;;4987345;28;20445;-62
2023/07/05 00:19:07;;;;;;;6.65;4.60;;;;;;;;;;4987355;28;20506;-62
2023/07/05 00:21:36;;;;;;;6.40;4.50;;;;;;;;;;4986687;28;21091;-62
2023/07/05 00:24:03;;;;;;;7.50;4.60;;;;;;;;;;4981470;28;20516;-62
2023/07/05 00:26:30;;;;;;;7.47;4.55;;;;;;;;;;4983987;28;20488;-62
2023/07/05 00:28:57;;;;;;;7.47;4.65;;;;;;;;;;4984921;28;20831;-62
2023/07/05 00:31:24;;;;;;;7.63;4.55;;;;;;;;;;4981992;28;20428;-62
2023/07/05 00:33:51;;;;;;;8.55;4.78;;;;;;;;;;4982257;28;20420;-62
2023/07/05 00:36:18;;;;;;;5.87;4.60;;;;;;;;;;4982103;28;20451;-62
2023/07/05 00:38:46;;;;;;;7.53;4.82;;;;;;;;;;4982973;28;20416;-62
2023/07/05 00:41:13;;;;;;;6.60;4.30;;;;;;;;;;4984649;28;20424;-62
2023/07/05 00:43:47;;;;;;;6.90;4.40;;;;;;;;;;4983302;28;20504;-62
2023/07/05 00:46:17;;;;;;;7.15;4.63;;;;;;;;;;4973384;28;20494;-62
2023/07/05 00:48:48;;;;;;;8.38;4.75;;;;;;;;;;4975938;28;20467;-62
2023/07/05 00:51:17;;;;;;;7.13;4.88;;;;;;;;;;4984538;28;20477;-61
2023/07/05 00:53:44;;;;;;;8.52;4.95;;;;;;;;;;4982007;28;20460;-62
2023/07/05 00:56:14;;;;;;;8.52;5.13;;;;;;;;;;4980827;28;20931;-62
2023/07/05 00:58:42;;;;;;;7.35;4.63;;;;;;;;;;4983781;28;20463;-60
2023/07/05 01:01:09;;;;;;;5.53;4.77;;;;;;;;;;4984936;28;20467;-61
2023/07/05 01:03:37;;;;;;;6.80;5.18;;;;;;;;;;4988013;28;20481;-62
2023/07/05 01:06:06;;;;;;;7.00;4.90;;;;;;;;;;4986387;28;20500;-62
2023/07/05 01:08:33;;;;;;;6.03;4.73;;;;;;;;;;4982942;28;20472;-62
2023/07/05 01:11:08;;;;;;;6.78;4.97;;;;;;;;;;4984673;28;20451;-62
2023/07/05 01:13:38;;;;;;;7.60;4.68;;;;;;;;;;4985136;28;20429;-62
2023/07/05 01:16:12;;;;;;;7.78;4.68;;;;;;;;;;4982486;28;20821;-62
2023/07/05 01:18:43;;;;;;;8.48;4.68;;;;;;;;;;4981389;28;20463;-62
2023/07/05 01:21:12;;;;;;;9.25;4.40;;;;;;;;;;4986040;28;20967;-63
2023/07/05 01:23:57;;;;;;;7.47;4.40;;;;;;;;;;4984805;28;20484;-62
2023/07/05 01:26:49;;;;;;;5.55;4.45;;;;;;;;;;4973049;28;20440;-62
2023/07/05 01:29:35;;;;;;;5.72;4.53;;;;;;;;;;4980905;28;20461;-62
2023/07/05 01:32:06;;;;;;;8.15;4.90;;;;;;;;;;4971615;28;20911;-62
2023/07/05 01:34:38;;;;;;;8.27;4.57;;;;;;;;;;4981033;28;20461;-62
2023/07/05 01:37:06;;;;;;;6.25;4.78;;;;;;;;;;4980983;28;20855;-62
2023/07/05 01:39:33;;;;;;;8.03;4.90;;;;;;;;;;4980755;28;20904;-61
2023/07/05 01:42:01;;;;;;;9.05;4.90;;;;;;;;;;4982879;28;20418;-62
2023/07/05 01:44:28;;;;;;;7.65;5.28;;;;;;;;;;4983485;28;20500;-61
2023/07/05 01:47:00;;;;;;;6.25;4.88;;;;;;;;;;4979224;28;20436;-62
2023/07/05 01:49:43;;;;;;;7.28;4.63;;;;;;;;;;4986164;28;20471;-63
2023/07/05 01:52:13;;;;;;;5.68;4.50;;;;;;;;;;4985432;28;20480;-63
2023/07/05 01:54:43;;;;;;;6.25;4.32;;;;;;;;;;4974683;28;20548;-63
2023/07/05 01:57:13;;;;;;;6.53;4.55;;;;;;;;;;4984620;28;20534;-63
2023/07/05 01:59:45;;;;;;;7.68;4.35;;;;;;;;;;4983374;28;20453;-63
2023/07/05 02:02:13;;;;;;;6.47;4.45;;;;;;;;;;4982558;28;20469;-63
2023/07/05 02:04:43;;;;;;;6.35;4.18;;;;;;;;;;4983393;28;20457;-63
2023/07/05 02:07:10;;;;;;;6.70;4.07;;;;;;;;;;4984616;28;20936;-64
2023/07/05 02:09:38;;;;;;;7.30;4.20;;;;;;;;;;4989234;28;20482;-63
2023/07/05 02:12:05;;;;;;;4.53;4.10;;;;;;;;;;4983746;28;20514;-63
2023/07/05 02:14:32;;;;;;;6.30;3.67;;;;;;;;;;4986130;28;20469;-63
2023/07/05 02:16:59;;;;;;;5.60;3.80;;;;;;;;;;4986317;28;20423;-62
2023/07/05 02:19:26;;;;;;;5.97;3.80;;;;;;;;;;4983123;28;20428;-63
2023/07/05 02:21:55;;;;;;;6.75;3.78;;;;;;;;;;4984617;28;20627;-63
2023/07/05 02:24:22;;;;;;;6.00;3.50;;;;;;;;;;4981949;28;20420;-62
2023/07/05 02:26:49;;;;;;;7.47;4.00;;;;;;;;;;4982539;28;20458;-62
2023/07/05 02:29:16;;;;;;;5.95;3.42;;;;;;;;;;4979496;28;20430;-62
2023/07/05 02:31:43;;;;;;;4.60;3.60;;;;;;;;;;4979401;28;20482;-62
2023/07/05 02:34:10;;;;;;;6.27;3.53;;;;;;;;;;4981700;28;20838;-63
2023/07/05 02:36:38;;;;;;;5.78;3.40;;;;;;;;;;4982410;28;20437;-62
2023/07/05 02:39:06;;;;;;;6.47;3.67;;;;;;;;;;4977670;28;20429;-62
2023/07/05 02:41:33;;;;;;;4.93;3.50;;;;;;;;;;4981712;28;20430;-62
2023/07/05 02:44:00;;;;;;;4.20;3.78;;;;;;;;;;4980083;28;20480;-62
2023/07/05 02:46:29;;;;;;;6.20;4.13;;;;;;;;;;4978342;28;20446;-62
2023/07/05 02:48:57;;;;;;;5.38;3.25;;;;;;;;;;4981554;28;20472;-63
2023/07/05 02:51:24;;;;;;;5.15;4.05;;;;;;;;;;4982909;28;21162;-62
2023/07/05 02:53:51;;;;;;;5.47;3.83;;;;;;;;;;4985210;28;20428;-62
2023/07/05 02:56:19;;;;;;;6.65;4.05;;;;;;;;;;4986315;28;20476;-63
2023/07/05 02:58:46;;;;;;;5.00;3.90;;;;;;;;;;4986399;28;20527;-63
2023/07/05 03:01:13;;;;;;;5.43;3.90;;;;;;;;;;4982522;28;20418;-62
2023/07/05 03:03:40;;;;;;;5.93;4.10;;;;;;;;;;4980950;28;21138;-61
2023/07/05 03:06:07;;;;;;;6.85;3.90;;;;;;;;;;4979947;28;20439;-62
2023/07/05 03:08:34;;;;;;;4.85;4.00;;;;;;;;;;4985008;28;20445;-61
2023/07/05 03:11:01;;;;;;;5.38;3.55;;;;;;;;;;4981717;28;20426;-62
2023/07/05 03:13:30;;;;;;;5.57;3.72;;;;;;;;;;4980254;28;20419;-62
2023/07/05 03:15:58;;;;;;;4.53;3.45;;;;;;;;;;4980547;28;21001;-63
2023/07/05 03:18:25;;;;;;;4.90;3.70;;;;;;;;;;4982390;28;20430;-62
2023/07/05 03:20:52;;;;;;;4.78;3.92;;;;;;;;;;4985479;28;20909;-62
2023/07/05 03:23:19;;;;;;;6.40;4.07;;;;;;;;;;4983398;28;20534;-62
2023/07/05 03:25:54;;;;;;;5.22;3.67;;;;;;;;;;4980602;28;20466;-62
2023/07/05 03:28:21;;;;;;;5.90;3.90;;;;;;;;;;4981842;28;20498;-62
2023/07/05 03:30:57;;;;;;;4.95;3.95;;;;;;;;;;4984320;28;20423;-63
2023/07/05 03:33:24;;;;;;;4.57;3.78;;;;;;;;;;4983888;28;20639;-63
2023/07/05 03:35:55;;;;;;;5.60;3.50;;;;;;;;;;4984684;28;20467;-64
2023/07/05 03:38:24;;;;;;;3.90;3.50;;;;;;;;;;4987556;28;20536;-63
2023/07/05 03:40:56;;;;;;;4.28;3.20;;;;;;;;;;4986966;28;20432;-63
2023/07/05 03:43:24;;;;;;;3.78;3.30;;;;;;;;;;4988278;28;20475;-64
2023/07/05 03:45:51;;;;;;;4.63;3.22;;;;;;;;;;4987129;28;20426;-62
2023/07/05 03:48:20;;;;;;;3.95;3.03;;;;;;;;;;4986564;28;20490;-63
2023/07/05 03:50:47;;;;;;;4.88;3.10;;;;;;;;;;4989827;28;20422;-64
2023/07/05 03:53:15;;;;;;;3.83;2.80;;;;;;;;;;4987908;28;20422;-62
2023/07/05 03:55:42;;;;;;;3.20;2.60;;;;;;;;;;4981454;28;20918;-62
2023/07/05 03:58:09;;;;;;;3.15;2.40;;;;;;;;;;4981589;28;20439;-62
2023/07/05 04:00:36;;;;;;;3.78;2.50;;;;;;;;;;4984765;28;20492;-62
2023/07/05 04:03:03;;;;;;;3.88;2.20;;;;;;;;;;4984197;28;20424;-60
2023/07/05 04:05:31;;;;;;;2.70;2.05;;;;;;;;;;4981970;28;20433;-62
2023/07/05 04:07:58;;;;;;;2.95;2.00;;;;;;;;;;4983594;28;20536;-62
2023/07/05 04:10:25;;;;;;;3.60;1.80;;;;;;;;;;4982510;28;20420;-60
2023/07/05 04:12:52;;;;;;;3.70;2.10;;;;;;;;;;4982572;28;20420;-62
2023/07/05 04:15:20;;;;;;;2.67;1.90;;;;;;;;;;4987658;28;20461;-59
2023/07/05 04:17:47;;;;;;;5.03;2.00;;;;;;;;;;4982163;28;20473;-63
2023/07/05 04:20:14;;;;;;;3.22;2.05;;;;;;;;;;4988552;28;20906;-62
2023/07/05 04:22:43;;;;;;;3.08;2.10;;;;;;;;;;4983672;28;20423;-62
2023/07/05 04:25:11;;;;;;;3.50;1.98;;;;;;;;;;4984189;28;20916;-62
2023/07/05 04:27:38;;;;;;;3.90;2.40;;;;;;;;;;4981504;28;20505;-64
2023/07/05 04:30:06;;;;;;;5.05;2.30;;;;;;;;;;4982362;28;20778;-61
2023/07/05 04:32:33;;;;;;;4.47;2.40;;;;;;;;;;4983217;28;20428;-61
2023/07/05 04:35:00;;;;;;;3.83;1.98;;;;;;;;;;4986705;28;20836;-60
2023/07/05 04:37:27;;;;;;;3.25;2.20;;;;;;;;;;4983169;28;20420;-57
2023/07/05 04:39:55;;;;;;;4.47;2.33;;;;;;;;;;4982080;28;20897;-58
2023/07/05 04:42:22;;;;;;;3.40;2.25;;;;;;;;;;4984770;28;20884;-61
2023/07/05 04:44:49;;;;;;;5.10;2.33;;;;;;;;;;4984018;28;20424;-62
2023/07/05 04:47:16;;;;;;;4.57;2.13;;;;;;;;;;4987699;28;20480;-60
2023/07/05 04:49:45;;;;;;;4.75;2.40;;;;;;;;;;4993048;28;20509;-62
2023/07/05 04:52:12;;;;;;;4.80;2.70;;;;;;;;;;4985563;28;20508;-62
2023/07/05 04:54:39;;;;;;;4.03;2.60;;;;;;;;;;4988211;28;20823;-62
2023/07/05 04:57:07;;;;;;;3.67;2.38;;;;;;;;;;4984140;28;20484;-62
2023/07/05 04:59:34;;;;;;;4.40;2.60;;;;;;;;;;4984543;28;20424;-62
2023/07/05 05:02:01;;;;;;;5.18;2.40;;;;;;;;;;4982248;28;20484;-62
2023/07/05 05:04:28;;;;;;;4.35;2.67;;;;;;;;;;4983324;28;20428;-62
2023/07/05 05:06:56;;;;;;;4.32;2.53;;;;;;;;;;4982388;28;20554;-63
2023/07/05 05:09:23;;;;;;;4.78;3.03;;;;;;;;;;4984788;28;20945;-62
2023/07/05 05:11:50;;;;;;;5.60;2.63;;;;;;;;;;4984522;28;20418;-64
2023/07/05 05:14:18;;;;;;;3.80;2.65;;;;;;;;;;4986017;28;20429;-59
2023/07/05 05:16:45;;;;;;;5.97;3.05;;;;;;;;;;4985689;28;20481;-60
2023/07/05 05:19:12;;;;;;;5.65;3.20;;;;;;;;;;4990837;28;20823;-62
2023/07/05 05:21:39;;;;;;;5.10;2.92;;;;;;;;;;4986667;28;20426;-64
2023/07/05 05:24:06;;;;;;;4.60;2.90;;;;;;;;;;4979994;28;20435;-61
2023/07/05 05:26:34;;;;;;;7.55;3.30;;;;;;;;;;4984457;28;20429;-63
2023/07/05 05:29:01;;;;;;;4.55;2.95;;;;;;;;;;4975729;28;20775;-62
2023/07/05 05:31:30;;;;;;;4.07;2.97;;;;;;;;;;4985186;28;20488;-63
2023/07/05 05:33:57;;;;;;;5.30;3.00;;;;;;;;;;4986302;28;20878;-61
2023/07/05 05:36:25;;;;;;;4.50;3.20;;;;;;;;;;4983209;28;20482;-61
2023/07/05 05:38:52;;;;;;;5.00;3.10;;;;;;;;;;4979735;28;20472;-61
2023/07/05 05:41:19;;;;;;;4.72;3.10;;;;;;;;;;4985061;28;20422;-62
2023/07/05 05:43:47;;;;;;;4.32;3.08;;;;;;;;;;4986009;28;20427;-61
2023/07/05 05:46:14;;;;;;;5.00;3.00;;;;;;;;;;4987764;28;20444;-62
2023/07/05 05:48:43;;;;;;;7.10;3.30;;;;;;;;;;4984362;28;20955;-60
2023/07/05 05:51:10;;;;;;;4.97;3.42;;;;;;;;;;4985347;28;20429;-61
2023/07/05 05:53:37;;;;;;;6.28;3.40;;;;;;;;;;4981342;28;20477;-60
2023/07/05 05:56:04;;;;;;;4.72;3.25;;;;;;;;;;4982781;28;20805;-60
2023/07/05 05:58:31;;;;;;;4.77;3.13;;;;;;;;;;4989888;28;21089;-61
2023/07/05 06:01:01;;;;;;;4.70;2.72;;;;;;;;;;4980152;28;20428;-61
2023/07/05 06:03:29;;;;;;;5.47;3.17;;;;;;;;;;4981810;28;20487;-62
2023/07/05 06:05:58;;;;;;;6.38;3.30;;;;;;;;;;4980588;28;20432;-61
2023/07/05 06:08:27;;;;;;;5.17;3.30;;;;;;;;;;4982097;28;20493;-64
2023/07/05 06:10:57;;;;;;;4.72;3.33;;;;;;;;;;4985067;28;20423;-63
2023/07/05 06:13:24;;;;;;;5.88;3.28;;;;;;;;;;4985235;28;20422;-63
2023/07/05 06:15:55;;;;;;;5.07;3.27;;;;;;;;;;4981329;28;20843;-63
2023/07/05 06:18:22;;;;;;;5.67;3.13;;;;;;;;;;4974822;28;20500;-64
2023/07/05 06:20:49;;;;;;;4.93;3.42;;;;;;;;;;4989992;28;20418;-65
2023/07/05 06:23:17;;;;;;;6.25;3.25;;;;;;;;;;4979836;28;20759;-62
2023/07/05 06:25:47;;;;;;;5.95;2.83;;;;;;;;;;4982102;28;20473;-63
2023/07/05 06:28:14;;;;;;;5.65;3.00;;;;;;;;;;4983625;28;20457;-63
2023/07/05 06:30:41;;;;;;;4.90;2.88;;;;;;;;;;4983507;28;20422;-66
2023/07/05 06:33:08;;;;;;;5.10;3.00;;;;;;;;;;4989922;28;20423;-64
2023/07/05 06:35:35;;;;;;;4.30;2.70;;;;;;;;;;4986009;28;20885;-64
2023/07/05 06:38:02;;;;;;;4.35;2.53;;;;;;;;;;4987031;28;20473;-63
2023/07/05 06:40:31;;;;;;;6.00;2.80;;;;;;;;;;4982986;28;21037;-64
2023/07/05 06:42:58;;;;;;;5.20;2.70;;;;;;;;;;4984375;28;20426;-65
2023/07/05 06:45:25;;;;;;;6.50;3.20;;;;;;;;;;4982866;28;20946;-64
2023/07/05 06:47:52;;;;;;;5.95;2.90;;;;;;;;;;4981422;28;20434;-66
2023/07/05 06:50:19;;;;;;;3.77;2.33;;;;;;;;;;4986724;28;20426;-65
2023/07/05 06:52:46;;;;;;;7.25;2.63;;;;;;;;;;4981872;28;20502;-64
2023/07/05 06:55:13;;;;;;;5.83;2.80;;;;;;;;;;4982963;28;20427;-65
2023/07/05 06:57:42;;;;;;;6.70;2.72;;;;;;;;;;4977116;28;20428;-65
2023/07/05 07:00:10;;;;;;;5.50;2.67;;;;;;;;;;4978980;28;20422;-64
2023/07/05 07:02:37;;;;;;;4.20;2.63;;;;;;;;;;4982979;28;20920;-63
2023/07/05 07:05:05;;;;;;;4.95;2.70;;;;;;;;;;4982543;28;20424;-64
2023/07/05 07:07:32;;;;;;;4.80;2.45;;;;;;;;;;4979034;28;20480;-61
2023/07/05 07:09:59;;;;;;;6.37;2.90;;;;;;;;;;4978969;28;20445;-63
2023/07/05 07:12:28;;;;;;;4.30;2.60;;;;;;;;;;4988898;28;20484;-62
2023/07/05 07:14:56;;;;;;;3.92;2.65;;;;;;;;;;4986288;28;20510;-63
2023/07/05 07:17:23;;;;;;;5.85;2.40;;;;;;;;;;4986997;28;20886;-63
2023/07/05 07:19:50;;;;;;;5.70;2.30;;;;;;;;;;4985471;28;20431;-62
2023/07/05 07:22:17;;;;;;;4.50;2.60;;;;;;;;;;4989094;28;20504;-61
2023/07/05 07:24:45;;;;;;;3.63;2.40;;;;;;;;;;4986338;28;20482;-61
2023/07/05 07:27:12;;;;;;;4.43;2.60;;;;;;;;;;4986692;28;20430;-61
2023/07/05 07:29:39;;;;;;;4.78;2.30;;;;;;;;;;4984127;28;20441;-61
2023/07/05 07:32:10;;;;;;;4.47;2.40;;;;;;;;;;4990665;28;20480;-65
2023/07/05 07:34:37;;;;;;;4.07;2.22;;;;;;;;;;4989849;28;20490;-64
2023/07/05 07:37:04;;;;;;;6.22;3.47;;;;;;;;;;4985978;28;20480;-62
2023/07/05 07:39:31;;;;;;;4.60;2.55;;;;;;;;;;4990378;28;20421;-63
2023/07/05 07:41:58;;;;;;;4.18;2.17;;;;;;;;;;4985890;28;20550;-63
2023/07/05 07:44:25;;;;;;;4.97;2.20;;;;;;;;;;4988181;28;20484;-62
2023/07/05 07:46:52;;;;;;;5.40;2.00;;;;;;;;;;4987425;28;20464;-62
2023/07/05 07:49:21;;;;;;;5.15;2.15;;;;;;;;;;4981431;28;20921;-63
2023/07/05 07:51:48;;;;;;;3.40;2.00;;;;;;;;;;4986055;28;20426;-64
2023/07/05 07:54:16;;;;;;;3.97;2.40;;;;;;;;;;4989937;28;20418;-62
2023/07/05 07:56:43;;;;;;;5.80;2.28;;;;;;;;;;4983547;28;20973;-65
2023/07/05 07:59:10;;;;;;;4.80;2.15;;;;;;;;;;4983389;28;20423;-63
2023/07/05 08:01:38;;;;;;;4.35;2.10;;;;;;;;;;4984210;28;20491;-63
2023/07/05 08:04:06;;;;;;;3.50;2.10;;;;;;;;;;4984489;28;20492;-63
2023/07/05 08:06:36;;;;;;;5.28;2.00;;;;;;;;;;4987005;28;21248;-61
2023/07/05 08:09:05;;;;;;;4.40;2.00;;;;;;;;;;4986909;28;21001;-64
2023/07/05 08:11:32;;;;;;;5.65;2.03;;;;;;;;;;4980638;28;20428;-60
2023/07/05 08:13:59;;;;;;;4.20;1.70;;;;;;;;;;4983459;28;20532;-61
2023/07/05 08:16:26;;;;;;;3.78;1.80;;;;;;;;;;4984177;28;20425;-60
2023/07/05 08:18:54;;;;;;;4.40;2.10;;;;;;;;;;4982688;28;20484;-63
2023/07/05 08:21:21;;;;;;;4.57;1.70;;;;;;;;;;4981150;28;20488;-59
2023/07/05 08:23:49;;;;;;;4.47;1.75;;;;;;;;;;4980055;28;20876;-58
2023/07/05 08:26:16;;;;;;;2.77;2.00;;;;;;;;;;4985394;28;20420;-65
2023/07/05 08:28:44;;;;;;;4.13;1.92;;;;;;;;;;4981738;28;20513;-57
2023/07/05 08:31:11;;;;;;;5.72;2.08;;;;;;;;;;4982495;28;20830;-59
2023/07/05 08:33:38;;;;;;;4.67;2.10;;;;;;;;;;4985473;28;20502;-64
2023/07/05 08:36:10;;;;;;;6.50;2.13;;;;;;;;;;4989184;28;20468;-63
2023/07/05 08:38:39;;;;;;;3.23;2.00;;;;;;;;;;4982607;28;20472;-62
2023/07/05 08:41:12;;;;;;;3.22;1.90;;;;;;;;;;4982391;28;20461;-63
2023/07/05 08:43:41;;;;;;;5.45;2.03;;;;;;;;;;4984344;28;20478;-62
2023/07/05 08:46:12;;;;;;;4.28;1.80;;;;;;;;;;4987233;28;20443;-61
2023/07/05 08:48:39;;;;;;;4.60;1.70;;;;;;;;;;4983183;28;20434;-61
2023/07/05 08:51:06;;;;;;;4.07;2.10;;;;;;;;;;4988390;28;20422;-59
2023/07/05 08:53:39;;;;;;;5.20;1.80;;;;;;;;;;4986830;28;20436;-61
2023/07/05 08:56:11;;;;;;;3.40;1.67;;;;;;;;;;4986718;28;20497;-62
2023/07/05 08:58:41;;;;;;;7.00;1.80;;;;;;;;;;4979531;28;20490;-63
2023/07/05 09:01:12;;;;;;;5.18;1.48;;;;;;;;;;4980449;28;20809;-63
2023/07/05 09:03:39;;;;;;;4.80;1.50;;;;;;;;;;4982052;28;20428;-63
2023/07/05 09:06:20;;;;;;;5.75;1.80;;;;;;;;;;4984260;28;20763;-63
2023/07/05 09:08:51;;;;;;;4.37;1.80;;;;;;;;;;4980933;28;20455;-66
2023/07/05 09:11:25;;;;;;;4.38;1.80;;;;;;;;;;4980293;28;20499;-63
2023/07/05 09:13:55;;;;;;;3.90;1.70;;;;;;;;;;4981958;28;20428;-65
2023/07/05 09:16:24;;;;;;;5.47;1.55;;;;;;;;;;4984243;28;20426;-66
2023/07/05 09:18:56;;;;;;;4.93;1.88;;;;;;;;;;4983096;28;20891;-65
2023/07/05 09:21:29;;;;;;;3.38;1.73;;;;;;;;;;4985826;28;20426;-63
2023/07/05 09:23:58;;;;;;;4.93;2.03;;;;;;;;;;4982231;28;20418;-64
2023/07/05 09:26:28;;;;;;;3.72;1.67;;;;;;;;;;4979350;28;20470;-62
2023/07/05 09:29:01;;;;;;;4.72;1.80;;;;;;;;;;4982045;28;20481;-61
2023/07/05 09:31:28;;;;;;;5.18;1.77;;;;;;;;;;4981292;28;20488;-66
2023/07/05 09:34:01;;;;;;;3.40;1.65;;;;;;;;;;4983268;28;20486;-63
2023/07/05 09:36:29;;;;;;;5.25;1.88;;;;;;;;;;4987776;28;20598;-64
2023/07/05 09:38:59;;;;;;;5.50;1.77;;;;;;;;;;4989159;28;20884;-64
2023/07/05 09:41:38;;;;;;;7.63;1.77;;;;;;;;;;4983454;28;20780;-64
2023/07/05 09:44:05;;;;;;;8.23;2.00;;;;;;;;;;4989583;28;20418;-63
2023/07/05 09:46:34;;;;;;;7.03;1.73;;;;;;;;;;4983158;28;20428;-65
2023/07/05 09:49:01;;;;;;;4.47;1.67;;;;;;;;;;4984027;28;20434;-64
2023/07/05 09:51:28;;;;;;;7.90;1.83;;;;;;;;;;4983895;28;20426;-65
2023/07/05 09:53:57;;;;;;;6.75;1.70;;;;;;;;;;4987362;28;20442;-66
2023/07/05 09:56:28;;;;;;;6.82;1.80;;;;;;;;;;4984709;28;20899;-66
2023/07/05 09:59:07;;;;;;;7.50;1.63;;;;;;;;;;4984691;28;20412;-67
2023/07/05 10:01:35;;;;;;;5.00;1.85;;;;;;;;;;4972674;28;21168;-66
2023/07/05 10:04:04;;;;;;;4.88;1.73;;;;;;;;;;4991977;28;20420;-66
2023/07/05 10:06:32;;;;;;;10.65;1.80;;;;;;;;;;4981018;28;20420;-67
2023/07/05 10:09:04;;;;;;;7.65;1.88;;;;;;;;;;4980471;28;20526;-64
2023/07/05 10:11:33;;;;;;;7.28;2.10;;;;;;;;;;4981577;28;20414;-65
2023/07/05 10:14:04;;;;;;;6.60;2.03;;;;;;;;;;4992520;28;20419;-64
2023/07/05 10:16:49;;;;;;;5.68;1.92;;;;;;;;;;4979869;28;20488;-67
2023/07/05 10:19:20;;;;;;;7.57;2.30;;;;;;;;;;4985209;28;20414;-67
2023/07/05 10:21:48;;;;;;;16.05;2.63;;;;;;;;;;4981605;28;20530;-68
2023/07/05 10:24:17;;;;;;;8.18;1.92;;;;;;;;;;4981736;28;20888;-67
2023/07/05 10:26:44;;;;;;;8.82;2.50;;;;;;;;;;4981182;28;20543;-66
2023/07/05 10:29:12;;;;;;;8.40;2.40;;;;;;;;;;4977170;28;20430;-66
2023/07/05 10:31:41;;;;;;;8.82;2.47;;;;;;;;;;4978450;28;20428;-66
2023/07/05 10:34:19;;;;;;;7.63;1.73;;;;;;;;;;4983274;28;20502;-65
2023/07/05 10:36:48;;;;;;;5.07;1.67;;;;;;;;;;4980435;28;20443;-65
2023/07/05 10:39:17;;;;;;;6.05;1.90;;;;;;;;;;4981850;28;20452;-65
2023/07/05 10:41:44;;;;;;;6.60;1.90;;;;;;;;;;4974926;28;20420;-63
2023/07/05 10:44:16;;;;;;;7.90;2.00;;;;;;;;;;4983911;28;20485;-65
2023/07/05 10:46:48;;;;;;;5.63;1.80;;;;;;;;;;4981768;28;20465;-65
2023/07/05 10:49:18;;;;;;;7.35;1.75;;;;;;;;;;4983545;28;20937;-64
2023/07/05 10:51:49;;;;;;;8.23;1.70;;;;;;;;;;4977707;28;20471;-63
2023/07/05 10:54:19;;;;;;;5.47;2.10;;;;;;;;;;4983273;28;20418;-64
2023/07/05 10:56:46;;;;;;;5.00;1.90;;;;;;;;;;4980543;28;20864;-65
2023/07/05 10:59:15;;;;;;;5.72;1.70;;;;;;;;;;4979377;28;20424;-65
2023/07/05 11:01:43;;;;;;;8.38;2.00;;;;;;;;;;4981840;28;20431;-64
2023/07/05 11:04:12;;;;;;;6.65;1.80;;;;;;;;;;4984924;28;20757;-64
2023/07/05 11:06:42;;;;;;;5.93;1.95;;;;;;;;;;4986032;28;20426;-65
2023/07/05 11:09:10;;;;;;;6.63;1.80;;;;;;;;;;4981315;28;20469;-64
2023/07/05 11:11:41;;;;;;;5.43;2.08;;;;;;;;;;4979242;28;20509;-66
2023/07/05 11:14:12;;;;;;;8.63;1.75;;;;;;;;;;4982926;28;20565;-65
2023/07/05 11:16:40;;;;;;;4.00;1.80;;;;;;;;;;4971885;28;20557;-65
2023/07/05 11:19:11;;;;;;;7.88;1.70;;;;;;;;;;4984500;28;20888;-65
2023/07/05 11:21:42;;;;;;;6.97;1.85;;;;;;;;;;4984737;28;20422;-68
2023/07/05 11:24:09;;;;;;;7.00;1.70;;;;;;;;;;4981662;28;20418;-66
2023/07/05 11:26:38;;;;;;;5.97;1.95;;;;;;;;;;4985052;28;20435;-69
2023/07/05 11:29:35;;;;;;;7.85;1.83;;;;;;;;;;4986566;28;20512;-69
2023/07/05 11:32:03;;;;;;;5.65;1.80;;;;;;;;;;4948459;29;20433;-69
2023/07/05 11:34:34;;;;;;;4.70;1.70;;;;;;;;;;4979672;28;20432;-68
2023/07/05 11:37:16;;;;;;;4.10;1.50;;;;;;;;;;4988063;28;20459;-69
2023/07/05 11:39:45;;;;;;;6.13;1.70;;;;;;;;;;4987813;28;20473;-69
2023/07/05 11:42:31;;;;;;;4.90;1.40;;;;;;;;;;4978634;28;20423;-69
2023/07/05 11:45:13;;;;;;;7.07;1.83;;;;;;;;;;4984399;28;20490;-68
2023/07/05 11:47:48;;;;;;;5.10;1.50;;;;;;;;;;4981434;28;20450;-65
2023/07/05 11:50:15;;;;;;;5.40;1.70;;;;;;;;;;4984729;28;20466;-66
2023/07/05 11:52:44;;;;;;;4.57;1.63;;;;;;;;;;4981889;28;20482;-63
2023/07/05 11:55:13;;;;;;;7.18;1.77;;;;;;;;;;4981831;28;20507;-63
2023/07/05 11:57:44;;;;;;;3.95;1.60;;;;;;;;;;4982130;28;20778;-63
2023/07/05 12:00:14;;;;;;;8.27;1.67;;;;;;;;;;4983909;28;20496;-63
2023/07/05 12:02:53;;;;;;;5.35;1.50;;;;;;;;;;4985230;28;20435;-63
2023/07/05 12:05:21;;;;;;;4.68;1.58;;;;;;;;;;4987917;28;20418;-63
2023/07/05 12:07:50;;;;;;;6.22;1.65;;;;;;;;;;4987059;28;20485;-65
2023/07/05 12:10:21;;;;;;;4.72;1.48;;;;;;;;;;4986742;28;20438;-67
2023/07/05 12:12:48;;;;;;;4.57;1.60;;;;;;;;;;4973797;28;20420;-66
2023/07/05 12:15:16;;;;;;;7.00;1.65;;;;;;;;;;4980037;28;20904;-67
2023/07/05 12:17:43;;;;;;;7.15;1.80;;;;;;;;;;4985107;28;20422;-64
2023/07/05 12:20:21;;;;;;;6.63;1.70;;;;;;;;;;4990139;28;20422;-66
2023/07/05 12:22:49;;;;;;;4.95;1.38;;;;;;;;;;4985470;28;20416;-66
2023/07/05 12:25:16;;;;;;;6.97;1.67;;;;;;;;;;4982680;28;20471;-65
2023/07/05 12:27:44;;;;;;;4.72;1.55;;;;;;;;;;4986794;28;20427;-67
2023/07/05 12:30:16;;;;;;;5.47;1.60;;;;;;;;;;4990676;28;20435;-65
2023/07/05 12:32:48;;;;;;;4.87;1.50;;;;;;;;;;4993622;28;20434;-64
2023/07/05 12:35:17;;;;;;;4.57;1.50;;;;;;;;;;4984853;28;20477;-63
2023/07/05 12:37:44;;;;;;;5.90;1.43;;;;;;;;;;4986427;28;20422;-65
2023/07/05 12:40:13;;;;;;;4.93;1.52;;;;;;;;;;4983303;28;20422;-66
2023/07/05 12:42:49;;;;;;;6.20;1.70;;;;;;;;;;4979723;28;20839;-63
2023/07/05 12:45:17;;;;;;;8.40;1.90;;;;;;;;;;4983206;28;20427;-63
2023/07/05 12:47:44;;;;;;;5.22;1.50;;;;;;;;;;4985363;28;20493;-64
2023/07/05 12:50:12;;;;;;;4.15;1.33;;;;;;;;;;4982608;28;20438;-63
2023/07/05 12:52:39;;;;;;;4.53;1.50;;;;;;;;;;4983268;28;20422;-64
2023/07/05 12:55:21;;;;;;;8.18;1.60;;;;;;;;;;4986657;28;20418;-65
2023/07/05 12:57:52;;;;;;;7.50;1.83;;;;;;;;;;4984604;28;20430;-65
2023/07/05 13:00:20;;;;;;;6.15;1.85;;;;;;;;;;4988533;28;20454;-65
2023/07/05 13:02:47;;;;;;;7.28;1.80;;;;;;;;;;4985315;28;20524;-64
2023/07/05 13:05:15;;;;;;;6.10;1.80;;;;;;;;;;4988995;28;20433;-64
2023/07/05 13:07:42;;;;;;;7.00;2.10;;;;;;;;;;4980862;28;20515;-64
2023/07/05 13:10:10;;;;;;;6.05;1.90;;;;;;;;;;4983246;28;20441;-63
2023/07/05 13:12:47;;;;;;;6.15;1.80;;;;;;;;;;4980773;28;20449;-64
2023/07/05 13:15:15;;;;;;;6.72;1.67;;;;;;;;;;4980204;28;20429;-64
2023/07/05 13:17:42;;;;;;;5.10;1.50;;;;;;;;;;4987599;28;20507;-64
2023/07/05 13:20:12;;;;;;;8.48;1.60;;;;;;;;;;4985041;28;20421;-64
2023/07/05 13:22:42;;;;;;;6.55;2.03;;;;;;;;;;4981932;28;20435;-65
2023/07/05 13:25:24;;;;;;;6.18;1.92;;;;;;;;;;4983493;28;20481;-65
2023/07/05 13:27:53;;;;;;;4.10;1.70;;;;;;;;;;4983572;28;20414;-64
2023/07/05 13:30:22;;;;;;;5.45;1.90;;;;;;;;;;4982253;28;20466;-68
2023/07/05 13:32:52;;;;;;;5.95;2.00;;;;;;;;;;4985609;28;20474;-64
2023/07/05 13:35:19;;;;;;;6.32;2.03;;;;;;;;;;4982383;28;20422;-63
2023/07/05 13:37:46;;;;;;;8.40;2.45;;;;;;;;;;4982721;28;20775;-63
2023/07/05 13:40:18;;;;;;;13.20;2.55;;;;;;;;;;4972202;28;20418;-64
2023/07/05 13:42:47;;;;;;;14.35;2.65;;;;;;;;;;4972344;28;20416;-64
2023/07/05 13:45:15;;;;;;;9.80;2.40;;;;;;;;;;4979609;28;20446;-64
2023/07/05 13:47:44;;;;;;;11.48;2.17;;;;;;;;;;4979810;28;20420;-63
2023/07/05 13:50:12;;;;;;;9.57;1.80;;;;;;;;;;4984286;28;20438;-64
2023/07/05 13:52:40;;;;;;;9.03;2.10;;;;;;;;;;4984367;28;20537;-64
2023/07/05 13:55:07;;;;;;;8.20;2.17;;;;;;;;;;4982941;28;20541;-62
2023/07/05 13:57:35;;;;;;;10.05;2.22;;;;;;;;;;4981597;28;20822;-66
2023/07/05 14:00:04;;;;;;;7.47;1.90;;;;;;;;;;4979975;28;20426;-63
2023/07/05 14:02:31;;;;;;;8.68;2.20;;;;;;;;;;4980153;28;20459;-63
2023/07/05 14:05:00;;;;;;;6.13;1.90;;;;;;;;;;4980413;28;20475;-63
2023/07/05 14:07:27;;;;;;;7.22;2.15;;;;;;;;;;4983989;28;20438;-63
2023/07/05 14:09:54;;;;;;;9.07;2.00;;;;;;;;;;4980081;28;20422;-69
2023/07/05 14:12:22;;;;;;;11.07;2.10;;;;;;;;;;4982972;28;20406;-64
2023/07/05 14:14:49;;;;;;;7.10;2.20;;;;;;;;;;4980474;28;20455;-63
2023/07/05 14:17:17;;;;;;;8.33;2.20;;;;;;;;;;4985187;28;20441;-64
2023/07/05 14:19:44;;;;;;;8.65;2.35;;;;;;;;;;4987257;28;20426;-63
2023/07/05 14:22:16;;;;;;;6.03;2.30;;;;;;;;;;4981517;28;20490;-63
2023/07/05 14:24:43;;;;;;;8.50;2.47;;;;;;;;;;4971953;28;20420;-64
2023/07/05 14:27:15;;;;;;;6.50;2.33;;;;;;;;;;4971155;28;20427;-63
2023/07/05 14:29:42;;;;;;;6.38;2.40;;;;;;;;;;4982496;28;20422;-63
2023/07/05 14:32:10;;;;;;;4.43;2.03;;;;;;;;;;4985561;28;20843;-64
2023/07/05 14:34:37;;;;;;;5.65;2.13;;;;;;;;;;4982541;28;20427;-65
2023/07/05 14:37:05;;;;;;;7.18;2.15;;;;;;;;;;4981378;28;20413;-63
2023/07/05 14:39:33;;;;;;;5.78;2.35;;;;;;;;;;4978837;28;20482;-64
2023/07/05 14:42:00;;;;;;;5.55;2.13;;;;;;;;;;4980664;28;20416;-63
2023/07/05 14:44:28;;;;;;;7.03;2.17;;;;;;;;;;4980413;28;20424;-64
2023/07/05 14:46:55;;;;;;;6.88;2.00;;;;;;;;;;4984693;28;20458;-65
2023/07/05 14:49:22;;;;;;;4.53;2.20;;;;;;;;;;4983328;28;20506;-65
2023/07/05 14:51:49;;;;;;;6.47;2.22;;;;;;;;;;4978432;28;20463;-65
2023/07/05 14:54:16;;;;;;;8.23;2.47;;;;;;;;;;4986835;28;20453;-64